createdAt,value
2023-02-24T00:01:51.730Z,8.92
2023-02-24T00:04:20.182Z,8.93
2023-02-24T00:06:47.554Z,9.01
2023-02-24T00:09:19.491Z,8.99
2023-02-24T00:12:01.585Z,8.93
2023-02-24T00:14:30.767Z,8.80
2023-02-24T00:16:58.017Z,8.68
2023-02-24T00:19:28.416Z,8.72
2023-02-24T00:21:54.675Z,8.71
2023-02-24T00:24:21.791Z,8.69
2023-02-24T00:26:53.827Z,8.70
2023-02-24T00:29:26.350Z,8.78
2023-02-24T00:31:58.676Z,8.79
2023-02-24T00:34:32.928Z,8.62
2023-02-24T00:36:59.433Z,8.56
2023-02-24T00:39:44.384Z,8.47
2023-02-24T00:42:11.127Z,8.43
2023-02-24T00:44:43.889Z,8.36
2023-02-24T00:47:11.257Z,8.35
2023-02-24T00:49:41.460Z,8.25
2023-02-24T00:52:13.075Z,8.22
2023-02-24T00:54:40.647Z,8.26
2023-02-24T00:57:09.705Z,8.30
2023-02-24T00:59:36.337Z,8.36
2023-02-24T01:02:06.419Z,8.47
2023-02-24T01:04:33.198Z,8.57
2023-02-24T01:06:59.515Z,8.53
2023-02-24T01:09:27.766Z,8.45
2023-02-24T01:12:12.818Z,8.50
2023-02-24T01:14:39.337Z,8.56
2023-02-24T01:17:06.926Z,8.57
2023-02-24T01:19:34.426Z,8.66
2023-02-24T01:22:03.168Z,8.80
2023-02-24T01:24:35.113Z,8.89
2023-02-24T01:27:02.436Z,8.90
2023-02-24T01:29:28.566Z,8.92
2023-02-24T01:31:57.921Z,8.95
2023-02-24T01:34:26.199Z,8.89
2023-02-24T01:36:52.592Z,8.76
2023-02-24T01:39:19.296Z,8.66
2023-02-24T01:41:49.199Z,8.63
2023-02-24T01:44:19.039Z,8.63
2023-02-24T01:46:47.584Z,8.55
2023-02-24T01:49:21.850Z,8.54
2023-02-24T01:52:01.931Z,8.52
2023-02-24T01:54:34.785Z,8.50
2023-02-24T01:57:01.261Z,8.55
2023-02-24T01:59:29.547Z,8.58
2023-02-24T02:02:06.177Z,8.53
2023-02-24T02:04:44.219Z,8.43
2023-02-24T02:07:19.314Z,8.47
2023-02-24T02:09:47.751Z,8.50
2023-02-24T02:12:13.931Z,8.53
2023-02-24T02:14:51.630Z,8.49
2023-02-24T02:17:31.276Z,8.54
2023-02-24T02:20:15.142Z,8.44
2023-02-24T02:23:11.787Z,8.40
2023-02-24T02:26:01.990Z,8.34
2023-02-24T02:28:46.666Z,8.28
2023-02-24T02:31:21.914Z,8.22
2023-02-24T02:34:04.830Z,8.18
2023-02-24T02:36:38.107Z,8.15
2023-02-24T02:39:25.696Z,8.10
2023-02-24T02:42:01.692Z,7.94
2023-02-24T02:44:44.351Z,7.94
2023-02-24T02:47:22.556Z,7.95
2023-02-24T02:49:57.850Z,7.92
2023-02-24T02:52:31.304Z,7.92
2023-02-24T02:55:09.499Z,7.90
2023-02-24T02:57:39.540Z,7.92
2023-02-24T03:00:20.715Z,8.00
2023-02-24T03:02:51.489Z,8.06
2023-02-24T03:05:29.014Z,8.15
2023-02-24T03:08:00.164Z,8.13
2023-02-24T03:10:28.346Z,8.17
2023-02-24T03:12:59.031Z,8.17
2023-02-24T03:15:29.654Z,8.19
2023-02-24T03:18:09.595Z,8.28
2023-02-24T03:20:42.417Z,8.33
2023-02-24T03:23:17.591Z,8.28
2023-02-24T03:25:51.120Z,8.24
2023-02-24T03:28:24.256Z,8.25
2023-02-24T03:31:02.916Z,8.26
2023-02-24T03:33:39.695Z,8.20
2023-02-24T03:36:06.450Z,8.08
2023-02-24T03:38:37.997Z,8.05
2023-02-24T03:41:10.433Z,8.06
2023-02-24T03:43:44.334Z,8.06
2023-02-24T03:46:11.308Z,7.89
2023-02-24T03:48:44.168Z,7.71
2023-02-24T03:51:20.025Z,7.66
2023-02-24T03:54:00.793Z,7.74
2023-02-24T03:56:57.466Z,7.80
2023-02-24T03:59:24.564Z,7.80
2023-02-24T04:01:57.299Z,7.83
2023-02-24T04:04:33.317Z,7.94
2023-02-24T04:07:15.737Z,8.12
2023-02-24T04:09:46.548Z,8.24
2023-02-24T04:12:19.152Z,8.30
2023-02-24T04:14:56.448Z,8.33
2023-02-24T04:17:30.481Z,8.42
2023-02-24T04:20:01.464Z,8.51
2023-02-24T04:22:32.436Z,8.56
2023-02-24T04:25:01.118Z,8.63
2023-02-24T04:27:28.005Z,8.69
2023-02-24T04:30:01.201Z,8.72
2023-02-24T04:32:30.119Z,8.75
2023-02-24T04:35:08.914Z,8.54
2023-02-24T04:37:35.725Z,8.29
2023-02-24T04:40:09.997Z,8.26
2023-02-24T04:42:45.766Z,8.26
2023-02-24T04:45:22.711Z,8.21
2023-02-24T04:47:52.441Z,8.20
2023-02-24T04:50:23.157Z,8.17
2023-02-24T04:52:51.244Z,8.18
2023-02-24T04:55:20.446Z,8.18
2023-02-24T04:57:47.264Z,8.12
2023-02-24T05:00:20.641Z,8.03
2023-02-24T05:02:51.417Z,8.00
2023-02-24T05:05:24.967Z,7.97
2023-02-24T05:07:52.675Z,7.90
2023-02-24T05:10:19.146Z,7.98
2023-02-24T05:12:45.275Z,8.07
2023-02-24T05:15:11.832Z,8.15
2023-02-24T05:17:40.065Z,8.22
2023-02-24T05:20:27.027Z,8.28
2023-02-24T05:22:53.211Z,8.34
2023-02-24T05:25:20.458Z,8.35
2023-02-24T05:27:49.660Z,8.28
2023-02-24T05:30:15.788Z,8.27
2023-02-24T05:32:42.242Z,8.30
2023-02-24T05:35:10.130Z,8.40
2023-02-24T05:37:38.352Z,8.38
2023-02-24T05:40:05.351Z,8.32
2023-02-24T05:42:34.478Z,8.25
2023-02-24T05:45:01.468Z,8.19
2023-02-24T05:47:27.925Z,8.25
2023-02-24T05:49:56.293Z,8.34
2023-02-24T05:52:22.385Z,8.40
2023-02-24T05:54:49.166Z,8.44
2023-02-24T05:57:24.236Z,8.46
2023-02-24T05:59:50.769Z,8.45
2023-02-24T06:02:26.563Z,8.44
2023-02-24T06:04:53.327Z,8.48
2023-02-24T06:07:24.071Z,8.47
2023-02-24T06:09:56.559Z,8.42
2023-02-24T06:12:25.430Z,8.32
2023-02-24T06:14:52.424Z,8.18
2023-02-24T06:17:19.987Z,8.10
2023-02-24T06:19:50.169Z,8.04
2023-02-24T06:22:19.085Z,8.06
2023-02-24T06:24:48.509Z,8.11
2023-02-24T06:27:18.085Z,8.23
2023-02-24T06:29:49.359Z,8.35
2023-02-24T06:32:17.222Z,8.45
2023-02-24T06:34:43.417Z,8.51
2023-02-24T06:37:13.668Z,8.58
2023-02-24T06:39:40.496Z,8.60
2023-02-24T06:42:08.266Z,8.62
2023-02-24T06:44:36.440Z,8.66
2023-02-24T06:47:02.869Z,8.75
2023-02-24T06:49:29.368Z,8.83
2023-02-24T06:51:56.992Z,8.83
2023-02-24T06:54:32.120Z,8.76
2023-02-24T06:56:58.451Z,8.49
2023-02-24T06:59:27.993Z,8.46
2023-02-24T07:01:55.390Z,8.35
2023-02-24T07:04:25.693Z,8.27
2023-02-24T07:06:56.679Z,8.27
2023-02-24T07:09:25.700Z,8.36
2023-02-24T07:11:55.304Z,8.46
2023-02-24T07:14:24.389Z,8.54
2023-02-24T07:16:55.037Z,8.58
2023-02-24T07:19:25.008Z,8.67
2023-02-24T07:21:59.150Z,8.65
2023-02-24T07:24:35.498Z,8.65
2023-02-24T07:27:05.414Z,8.67
2023-02-24T07:29:34.996Z,8.77
2023-02-24T07:32:04.841Z,8.86
2023-02-24T07:34:33.071Z,8.87
2023-02-24T07:37:05.929Z,8.83
2023-02-24T07:39:31.995Z,8.89
2023-02-24T07:41:58.792Z,8.96
2023-02-24T07:44:25.041Z,9.01
2023-02-24T07:46:51.791Z,9.04
2023-02-24T07:49:25.292Z,9.02
2023-02-24T07:51:54.568Z,9.05
2023-02-24T07:54:22.798Z,9.13
2023-02-24T07:56:58.916Z,9.22
2023-02-24T07:59:30.336Z,9.32
2023-02-24T08:01:56.778Z,9.41
2023-02-24T08:04:29.333Z,9.50
2023-02-24T08:06:56.118Z,9.59
2023-02-24T08:09:46.645Z,9.58
2023-02-24T08:12:20.621Z,9.61
2023-02-24T08:14:50.162Z,9.68
2023-02-24T08:17:21.683Z,9.76
2023-02-24T08:20:00.367Z,9.79
2023-02-24T08:22:28.240Z,9.79
2023-02-24T08:25:05.250Z,9.75
2023-02-24T08:27:33.382Z,9.66
2023-02-24T08:30:03.237Z,9.70
2023-02-24T08:32:44.328Z,9.74
2023-02-24T08:35:16.279Z,9.73
2023-02-24T08:37:48.368Z,9.79
2023-02-24T08:40:33.183Z,9.82
2023-02-24T08:43:29.847Z,9.85
2023-02-24T08:45:56.032Z,9.81
2023-02-24T08:48:37.808Z,9.82
2023-02-24T08:51:42.977Z,9.88
2023-02-24T08:54:15.545Z,9.99
2023-02-24T08:56:48.322Z,10.11
2023-02-24T08:59:36.991Z,10.24
2023-02-24T09:02:18.033Z,10.23
2023-02-24T09:05:14.230Z,10.19
2023-02-24T09:07:41.629Z,10.31
2023-02-24T09:10:17.074Z,10.45
2023-02-24T09:12:44.086Z,10.62
2023-02-24T09:15:14.769Z,10.82
2023-02-24T09:17:45.912Z,11.02
2023-02-24T09:20:41.177Z,11.37
2023-02-24T09:23:08.046Z,11.66
2023-02-24T09:25:40.609Z,11.77
2023-02-24T09:28:18.579Z,12.09
2023-02-24T09:30:55.962Z,12.40
2023-02-24T09:33:26.531Z,12.50
2023-02-24T09:36:02.290Z,12.63
2023-02-24T09:38:48.601Z,12.89
2023-02-24T09:41:32.046Z,13.24
2023-02-24T09:44:06.728Z,13.59
2023-02-24T09:46:40.360Z,13.61
2023-02-24T09:49:17.455Z,13.71
2023-02-24T09:51:44.946Z,13.70
2023-02-24T09:54:15.281Z,13.76
2023-02-24T09:56:56.592Z,13.78
2023-02-24T09:59:35.639Z,13.78
2023-02-24T10:02:43.451Z,13.77
2023-02-24T10:05:18.842Z,13.73
2023-02-24T10:07:45.992Z,13.70
2023-02-24T10:10:27.795Z,13.64
2023-02-24T10:13:13.361Z,13.44
2023-02-24T10:15:58.695Z,13.26
2023-02-24T10:19:01.543Z,13.23
2023-02-24T10:21:49.060Z,13.12
2023-02-24T10:24:46.624Z,13.01
2023-02-24T10:28:03.373Z,12.99
2023-02-24T10:30:41.278Z,12.97
2023-02-24T10:33:13.157Z,13.01
2023-02-24T10:35:39.291Z,13.21
2023-02-24T10:38:05.617Z,13.32
2023-02-24T10:40:44.409Z,13.39
2023-02-24T10:43:17.183Z,13.47
2023-02-24T10:45:44.866Z,13.59
2023-02-24T10:48:41.469Z,13.65
2023-02-24T10:51:19.078Z,13.76
2023-02-24T10:54:09.195Z,13.70
2023-02-24T10:56:43.690Z,13.76
2023-02-24T10:59:21.245Z,13.75
2023-02-24T11:02:23.126Z,13.78
2023-02-24T11:04:59.684Z,13.79
2023-02-24T11:07:43.307Z,13.82
2023-02-24T11:10:25.682Z,13.88
2023-02-24T11:13:14.357Z,13.93
2023-02-24T11:16:09.805Z,14.00
2023-02-24T11:18:38.536Z,13.99
2023-02-24T11:21:10.520Z,13.76
2023-02-24T11:24:06.103Z,13.72
2023-02-24T11:26:39.826Z,13.68
2023-02-24T11:29:46.820Z,13.73
2023-02-24T11:33:05.910Z,13.89
2023-02-24T11:35:50.851Z,13.87
2023-02-24T11:38:27.402Z,13.61
2023-02-24T11:41:40.430Z,13.55
2023-02-24T11:44:19.158Z,13.75
2023-02-24T11:46:53.698Z,13.91
2023-02-24T11:49:25.734Z,14.04
2023-02-24T11:51:53.745Z,14.14
2023-02-24T11:54:22.685Z,14.22
2023-02-24T11:56:59.653Z,14.33
2023-02-24T11:59:48.148Z,14.33
2023-02-24T12:02:21.791Z,14.33
2023-02-24T12:05:02.353Z,14.40
2023-02-24T12:07:35.597Z,14.42
2023-02-24T12:10:24.345Z,14.44
2023-02-24T12:13:27.514Z,14.48
2023-02-24T12:15:54.094Z,14.53
2023-02-24T12:18:38.745Z,14.56
2023-02-24T12:21:39.217Z,14.56
2023-02-24T12:24:11.633Z,14.57
2023-02-24T12:27:25.427Z,14.59
2023-02-24T12:30:06.637Z,14.63
2023-02-24T12:32:51.400Z,14.63
2023-02-24T12:35:19.406Z,14.69
2023-02-24T12:38:09.365Z,14.73
2023-02-24T12:41:05.609Z,14.76
2023-02-24T12:43:50.291Z,14.74
2023-02-24T12:46:26.310Z,14.70
2023-02-24T12:49:29.147Z,14.66
2023-02-24T12:52:27.498Z,14.62
2023-02-24T12:55:23.435Z,14.55
2023-02-24T12:58:04.510Z,14.47
2023-02-24T13:00:59.927Z,14.41
2023-02-24T13:03:31.763Z,14.42
2023-02-24T13:06:12.650Z,14.44
2023-02-24T13:08:51.002Z,14.45
2023-02-24T13:11:39.232Z,14.41
2023-02-24T13:14:17.381Z,14.40
2023-02-24T13:16:43.892Z,14.37
2023-02-24T13:19:24.966Z,14.36
2023-02-24T13:22:06.098Z,14.31
2023-02-24T13:24:33.045Z,14.21
2023-02-24T13:27:23.943Z,14.15
2023-02-24T13:29:55.116Z,14.10
2023-02-24T13:32:28.332Z,14.06
2023-02-24T13:34:56.670Z,14.02
2023-02-24T13:37:27.804Z,13.98
2023-02-24T13:39:53.990Z,13.93
2023-02-24T13:42:30.234Z,13.90
2023-02-24T13:44:58.994Z,13.81
2023-02-24T13:48:01.577Z,13.61
2023-02-24T13:50:40.151Z,13.52
2023-02-24T13:53:28.837Z,13.53
2023-02-24T13:56:25.621Z,13.57
2023-02-24T13:59:11.937Z,13.58
2023-02-24T14:02:07.346Z,13.58
2023-02-24T14:04:38.728Z,13.61
2023-02-24T14:07:11.296Z,13.60
2023-02-24T14:09:42.537Z,13.60
2023-02-24T14:12:30.670Z,13.61
2023-02-24T14:14:58.196Z,13.61
2023-02-24T14:17:27.841Z,13.61
2023-02-24T14:20:15.052Z,13.60
2023-02-24T14:22:48.288Z,13.59
2023-02-24T14:25:15.388Z,13.60
2023-02-24T14:27:47.828Z,13.61
2023-02-24T14:30:36.752Z,13.62
2023-02-24T14:33:06.343Z,13.60
2023-02-24T14:35:44.845Z,13.60
2023-02-24T14:38:29.589Z,13.60
2023-02-24T14:40:55.856Z,13.59
2023-02-24T14:43:22.000Z,13.56
2023-02-24T14:45:50.461Z,13.55
2023-02-24T14:48:28.879Z,13.53
2023-02-24T14:51:11.325Z,13.48
2023-02-24T14:53:44.557Z,13.46
2023-02-24T14:56:12.440Z,13.45
2023-02-24T14:58:46.757Z,13.43
2023-02-24T15:01:27.416Z,13.41
2023-02-24T15:03:57.567Z,13.34
2023-02-24T15:06:31.267Z,13.23
2023-02-24T15:09:02.159Z,13.18
2023-02-24T15:11:30.398Z,13.18
2023-02-24T15:14:00.651Z,13.16
2023-02-24T15:16:36.671Z,13.10
2023-02-24T15:19:03.284Z,13.11
2023-02-24T15:21:38.665Z,13.13
2023-02-24T15:24:20.640Z,13.13
2023-02-24T15:27:01.534Z,13.12
2023-02-24T15:29:30.428Z,13.10
2023-02-24T15:31:59.009Z,13.07
2023-02-24T15:34:31.598Z,13.08
2023-02-24T15:37:02.439Z,13.05
2023-02-24T15:39:30.972Z,13.05
2023-02-24T15:42:22.653Z,13.03
2023-02-24T15:45:00.617Z,12.96
2023-02-24T15:47:40.180Z,12.89
2023-02-24T15:50:07.027Z,12.82
2023-02-24T15:52:33.274Z,12.80
2023-02-24T15:55:01.831Z,12.78
2023-02-24T15:57:32.245Z,12.75
2023-02-24T15:59:58.815Z,12.73
2023-02-24T16:02:25.389Z,12.72
2023-02-24T16:04:52.089Z,12.70
2023-02-24T16:07:31.793Z,12.68
2023-02-24T16:09:59.823Z,12.66
2023-02-24T16:12:33.178Z,12.61
2023-02-24T16:15:02.252Z,12.54
2023-02-24T16:17:28.654Z,12.49
2023-02-24T16:19:56.242Z,12.45
2023-02-24T16:22:23.582Z,12.37
2023-02-24T16:24:49.830Z,12.35
2023-02-24T16:27:18.069Z,12.35
2023-02-24T16:29:44.743Z,12.35
2023-02-24T16:32:12.237Z,12.37
2023-02-24T16:34:38.959Z,12.39
2023-02-24T16:37:17.517Z,12.40
2023-02-24T16:39:43.799Z,12.36
2023-02-24T16:42:10.637Z,12.34
2023-02-24T16:44:36.783Z,12.24
2023-02-24T16:47:05.570Z,12.12
2023-02-24T16:49:32.883Z,12.14
2023-02-24T16:51:59.172Z,12.18
2023-02-24T16:54:28.472Z,12.19
2023-02-24T16:56:55.971Z,12.18
2023-02-24T16:59:22.656Z,12.18
2023-02-24T17:01:48.961Z,12.22
2023-02-24T17:04:15.284Z,12.26
2023-02-24T17:06:41.629Z,12.28
2023-02-24T17:09:07.661Z,12.29
2023-02-24T17:11:33.803Z,12.29
2023-02-24T17:14:00.107Z,12.28
2023-02-24T17:16:26.473Z,12.18
2023-02-24T17:18:52.703Z,12.11
2023-02-24T17:21:19.109Z,12.13
2023-02-24T17:23:45.243Z,12.13
2023-02-24T17:26:14.818Z,12.12
2023-02-24T17:28:42.918Z,12.12
2023-02-24T17:31:09.366Z,12.08
2023-02-24T17:33:35.735Z,12.04
2023-02-24T17:36:02.248Z,11.92
2023-02-24T17:38:28.397Z,11.80
2023-02-24T17:40:56.910Z,11.81
2023-02-24T17:43:23.311Z,11.79
2023-02-24T17:45:51.132Z,11.69
2023-02-24T17:48:17.283Z,11.68
2023-02-24T17:50:44.957Z,11.69
2023-02-24T17:53:11.562Z,11.71
2023-02-24T17:55:37.834Z,11.72
2023-02-24T17:58:04.165Z,11.71
2023-02-24T18:00:30.309Z,11.70
2023-02-24T18:02:56.650Z,11.70
2023-02-24T18:05:23.021Z,11.68
2023-02-24T18:07:49.106Z,11.61
2023-02-24T18:10:15.377Z,11.56
2023-02-24T18:12:41.549Z,11.56
2023-02-24T18:15:09.342Z,11.51
2023-02-24T18:17:37.107Z,11.42
2023-02-24T18:20:07.690Z,11.40
2023-02-24T18:22:34.104Z,11.40
2023-02-24T18:25:00.383Z,11.38
2023-02-24T18:27:26.912Z,11.38
2023-02-24T18:29:53.847Z,11.37
2023-02-24T18:32:20.195Z,11.36
2023-02-24T18:34:46.476Z,11.38
2023-02-24T18:37:12.683Z,11.37
2023-02-24T18:39:40.238Z,11.29
2023-02-24T18:42:06.415Z,11.14
2023-02-24T18:44:32.948Z,11.05
2023-02-24T18:46:59.029Z,11.02
2023-02-24T18:49:25.163Z,11.00
2023-02-24T18:51:51.345Z,11.03
2023-02-24T18:54:17.506Z,11.04
2023-02-24T18:56:43.645Z,11.02
2023-02-24T18:59:09.767Z,11.03
2023-02-24T19:01:38.674Z,11.03
2023-02-24T19:04:07.615Z,10.96
2023-02-24T19:06:35.474Z,10.89
2023-02-24T19:09:09.295Z,10.86
2023-02-24T19:11:36.980Z,10.79
2023-02-24T19:14:03.861Z,10.76
2023-02-24T19:16:31.040Z,10.74
2023-02-24T19:18:59.391Z,10.74
2023-02-24T19:21:27.184Z,10.73
2023-02-24T19:23:53.685Z,10.72
2023-02-24T19:26:23.787Z,10.72
2023-02-24T19:28:50.764Z,10.72
2023-02-24T19:31:24.463Z,10.71
2023-02-24T19:33:55.270Z,10.69
2023-02-24T19:36:22.650Z,10.69
2023-02-24T19:38:49.792Z,10.69
2023-02-24T19:41:16.311Z,10.65
2023-02-24T19:43:43.471Z,10.63
2023-02-24T19:46:12.440Z,10.59
2023-02-24T19:48:40.069Z,10.56
2023-02-24T19:51:12.318Z,10.49
2023-02-24T19:53:38.712Z,10.35
2023-02-24T19:56:06.758Z,10.31
2023-02-24T19:58:35.403Z,10.32
2023-02-24T20:01:10.480Z,10.36
2023-02-24T20:03:38.253Z,10.39
2023-02-24T20:06:05.592Z,10.38
2023-02-24T20:08:34.647Z,10.35
2023-02-24T20:11:03.851Z,10.32
2023-02-24T20:13:30.843Z,10.32
2023-02-24T20:16:12.101Z,10.33
2023-02-24T20:18:39.890Z,10.32
2023-02-24T20:21:07.413Z,10.19
2023-02-24T20:23:34.160Z,10.07
2023-02-24T20:26:00.961Z,9.98
2023-02-24T20:28:28.585Z,9.89
2023-02-24T20:30:57.713Z,9.89
2023-02-24T20:33:25.176Z,9.91
2023-02-24T20:35:51.570Z,9.92
2023-02-24T20:38:17.693Z,9.92
2023-02-24T20:40:43.869Z,9.97
2023-02-24T20:43:09.996Z,10.02
2023-02-24T20:45:37.763Z,10.09
2023-02-24T20:48:04.301Z,10.13
2023-02-24T20:50:30.932Z,10.09
2023-02-24T20:52:57.087Z,10.13
2023-02-24T20:55:23.311Z,10.11
2023-02-24T20:57:49.544Z,10.11
2023-02-24T21:00:16.395Z,10.12
2023-02-24T21:02:43.051Z,10.08
2023-02-24T21:05:17.325Z,10.08
2023-02-24T21:07:43.525Z,10.07
2023-02-24T21:10:10.416Z,10.06
2023-02-24T21:12:36.720Z,9.99
2023-02-24T21:15:03.902Z,9.98
2023-02-24T21:17:30.743Z,9.99
2023-02-24T21:19:56.829Z,9.94
2023-02-24T21:22:23.105Z,9.88
2023-02-24T21:24:49.200Z,9.88
2023-02-24T21:27:15.260Z,9.87
2023-02-24T21:29:41.391Z,9.87
2023-02-24T21:32:07.709Z,9.83
2023-02-24T21:34:34.194Z,9.73
2023-02-24T21:37:01.007Z,9.66
2023-02-24T21:39:27.454Z,9.59
2023-02-24T21:41:53.630Z,9.57
2023-02-24T21:44:20.635Z,9.60
2023-02-24T21:46:46.753Z,9.62
2023-02-24T21:49:18.965Z,9.63
2023-02-24T21:51:48.346Z,9.65
2023-02-24T21:54:14.456Z,9.67
2023-02-24T21:56:41.136Z,9.71
2023-02-24T21:59:10.541Z,9.76
2023-02-24T22:01:45.118Z,9.79
2023-02-24T22:04:14.724Z,9.83
2023-02-24T22:06:44.424Z,9.89
2023-02-24T22:09:11.836Z,9.88
2023-02-24T22:11:41.951Z,9.85
2023-02-24T22:14:10.867Z,9.80
2023-02-24T22:16:37.272Z,9.74
2023-02-24T22:19:04.078Z,9.70
2023-02-24T22:21:30.851Z,9.68
2023-02-24T22:24:00.113Z,9.69
2023-02-24T22:26:28.261Z,9.69
2023-02-24T22:28:57.748Z,9.65
2023-02-24T22:31:27.302Z,9.58
2023-02-24T22:33:53.547Z,9.56
2023-02-24T22:36:30.947Z,9.54
2023-02-24T22:38:58.508Z,9.46
2023-02-24T22:41:27.097Z,9.33
2023-02-24T22:43:53.416Z,9.28
2023-02-24T22:46:24.644Z,9.27
2023-02-24T22:48:51.032Z,9.20
2023-02-24T22:51:18.008Z,9.13
2023-02-24T22:53:48.537Z,9.09
2023-02-24T22:56:19.377Z,9.04
2023-02-24T22:58:45.843Z,9.00
2023-02-24T23:01:16.275Z,9.04
2023-02-24T23:03:43.073Z,9.05
2023-02-24T23:06:14.879Z,9.05
2023-02-24T23:08:43.860Z,9.11
2023-02-24T23:11:13.639Z,9.03
2023-02-24T23:13:41.726Z,8.93
2023-02-24T23:16:11.345Z,8.96
2023-02-24T23:18:37.681Z,9.00
2023-02-24T23:21:07.428Z,8.98
2023-02-24T23:23:35.093Z,8.91
2023-02-24T23:26:01.428Z,8.89
2023-02-24T23:28:28.023Z,8.84
2023-02-24T23:30:55.188Z,8.85
2023-02-24T23:33:21.874Z,8.88
2023-02-24T23:35:48.565Z,8.83
2023-02-24T23:38:15.023Z,8.81
2023-02-24T23:40:49.921Z,8.81
2023-02-24T23:43:17.232Z,8.77
2023-02-24T23:45:43.704Z,8.72
2023-02-24T23:48:13.057Z,8.69
2023-02-24T23:50:40.830Z,8.63
2023-02-24T23:53:07.160Z,8.63
2023-02-24T23:55:35.896Z,8.63
2023-02-24T23:58:03.063Z,8.63
